Time;durP1;ratioP1;P1;durP2;ratioP2;P2;SDS_P1;SDS_P2;PMS_P1;PMS_P2;Temp;Humidity;BMP_temperature;BMP_pressure;BME280_temperature;BME280_humidity;BME280_pressure;Samples;Min_cycle;Max_cycle;Signal;HPM_P1;HPM_P2
2022/01/03 00:00:00;;;;;;;17.30;15.75;;;;;;;9.56;100.00;98440.75;2086933;28;20756;-70
2022/01/03 00:01:01;;;;;;;17.27;15.70;;;;;;;9.63;100.00;98434.97;2086601;28;20673;-70
2022/01/03 00:02:02;;;;;;;17.67;16.27;;;;;;;9.62;100.00;98442.16;2086266;28;20883;-70
2022/01/03 00:03:05;;;;;;;17.00;15.50;;;;;;;9.61;100.00;98448.59;2087088;28;20233;-70
2022/01/03 00:04:09;;;;;;;17.02;15.57;;;;;;;9.57;100.00;98447.63;2087180;28;20218;-70
2022/01/03 00:05:13;;;;;;;17.60;16.05;;;;;;;9.60;100.00;98438.25;2086690;28;20234;-71
2022/01/03 00:06:15;;;;;;;18.00;16.48;;;;;;;9.57;100.00;98441.53;2087009;28;20222;-69
2022/01/03 00:07:16;;;;;;;16.83;15.43;;;;;;;9.59;100.00;98440.13;2087105;28;20222;-70
2022/01/03 00:08:19;;;;;;;17.67;16.10;;;;;;;9.57;100.00;98452.19;2086086;28;20313;-71
2022/01/03 00:09:21;;;;;;;18.85;17.20;;;;;;;9.57;100.00;98452.19;2086079;28;20261;-71
2022/01/03 00:10:22;;;;;;;18.42;16.73;;;;;;;9.61;100.00;98437.94;2077724;28;20745;-71
2022/01/03 00:11:24;;;;;;;17.83;16.37;;;;;;;9.56;100.00;98446.06;2086253;28;20650;-70
2022/01/03 00:12:25;;;;;;;17.92;16.50;;;;;;;9.59;100.00;98439.34;2086991;28;20309;-71
2022/01/03 00:13:27;;;;;;;17.88;16.33;;;;;;;9.58;100.00;98438.56;2086206;28;20257;-71
2022/01/03 00:14:28;;;;;;;18.88;17.10;;;;;;;9.53;100.00;98429.91;2086533;28;20222;-70
2022/01/03 00:15:30;;;;;;;17.67;16.17;;;;;;;9.52;100.00;98429.13;2086342;28;20221;-70
2022/01/03 00:16:31;;;;;;;17.30;15.90;;;;;;;9.52;100.00;98445.09;2086943;28;20222;-70
2022/01/03 00:17:33;;;;;;;18.00;16.30;;;;;;;9.49;100.00;98435.06;2086159;28;20237;-69
2022/01/03 00:18:33;;;;;;;18.00;16.48;;;;;;;9.46;100.00;98440.97;2086291;28;20637;-69
2022/01/03 00:19:37;;;;;;;17.57;16.27;;;;;;;9.43;100.00;98446.91;2086240;28;20246;-71
2022/01/03 00:20:39;;;;;;;17.73;16.10;;;;;;;9.47;100.00;98433.78;2077747;28;20238;-70
2022/01/03 00:21:45;;;;;;;17.58;16.05;;;;;;;9.42;100.00;98426.69;2086378;28;20226;-71
2022/01/03 00:22:50;;;;;;;18.75;17.13;;;;;;;9.45;100.00;98436.75;2087850;28;20590;-70
2022/01/03 00:24:07;;;;;;;17.75;16.02;;;;;;;9.42;100.00;98433.91;2087989;28;20229;-70
2022/01/03 00:25:15;;;;;;;17.45;15.90;;;;;;;9.44;100.00;98435.16;2087899;28;20309;-70
2022/01/03 00:26:24;;;;;;;18.23;16.55;;;;;;;9.43;100.00;98440.81;2088524;28;20633;-70
2022/01/03 00:27:29;;;;;;;17.45;16.00;;;;;;;9.44;100.00;98443.16;2088258;28;20223;-70
2022/01/03 00:28:34;;;;;;;17.52;15.98;;;;;;;9.44;100.00;98442.38;2088536;28;20310;-70
2022/01/03 00:29:42;;;;;;;17.27;15.90;;;;;;;9.44;100.00;98450.34;2088534;28;20223;-71
2022/01/03 00:30:44;;;;;;;17.23;15.77;;;;;;;9.37;100.00;98450.78;2087272;28;20271;-71
2022/01/03 00:31:45;;;;;;;17.58;16.15;;;;;;;9.39;100.00;98451.28;2079551;28;20276;-71
2022/01/03 00:32:51;;;;;;;18.90;17.23;;;;;;;9.41;100.00;98438.44;2087640;28;20229;-70
2022/01/03 00:33:55;;;;;;;18.52;17.13;;;;;;;9.40;100.00;98425.44;2088255;28;20641;-71
2022/01/03 00:34:59;;;;;;;17.83;16.33;;;;;;;9.37;100.00;98429.47;2087673;28;20231;-70
2022/01/03 00:36:01;;;;;;;18.85;17.13;;;;;;;9.38;100.00;98427.59;2087689;28;20784;-70
2022/01/03 00:37:03;;;;;;;18.38;16.77;;;;;;;9.42;100.00;98424.03;2087999;28;20230;-71
2022/01/03 00:38:06;;;;;;;18.00;16.33;;;;;;;9.48;100.00;98422.06;2088386;28;20215;-71
2022/01/03 00:39:09;;;;;;;18.27;16.60;;;;;;;9.45;100.00;98407.44;2087213;28;20226;-71
2022/01/03 00:40:11;;;;;;;17.80;16.40;;;;;;;9.42;100.00;98412.59;2079899;28;20706;-70
2022/01/03 00:41:12;;;;;;;17.00;15.48;;;;;;;9.38;100.00;98416.94;2079427;28;20230;-70
2022/01/03 00:42:15;;;;;;;18.40;16.60;;;;;;;9.42;100.00;98417.94;2087613;28;20219;-71
2022/01/03 00:43:17;;;;;;;17.08;15.68;;;;;;;9.38;100.00;98417.72;2079746;28;20227;-70
2022/01/03 00:44:18;;;;;;;17.80;16.07;;;;;;;9.38;100.00;98412.41;2079339;28;20215;-70
2022/01/03 00:45:19;;;;;;;17.77;16.33;;;;;;;9.33;100.00;98409.88;2087805;28;20225;-71
2022/01/03 00:46:27;;;;;;;18.42;16.85;;;;;;;9.35;100.00;98419.13;2087237;28;20260;-71
2022/01/03 00:47:29;;;;;;;17.38;15.93;;;;;;;9.35;100.00;98419.13;2079767;28;20219;-71
2022/01/03 00:48:32;;;;;;;17.88;16.23;;;;;;;9.35;100.00;98424.47;2079459;28;20745;-70
2022/01/03 00:49:38;;;;;;;18.10;16.58;;;;;;;9.34;100.00;98411.47;2079649;28;20585;-70
2022/01/03 00:50:40;;;;;;;18.58;16.85;;;;;;;9.34;100.00;98408.78;2079708;28;20245;-71
2022/01/03 00:51:42;;;;;;;18.63;16.95;;;;;;;9.31;100.00;98428.84;2079461;28;20215;-71
2022/01/03 00:52:44;;;;;;;18.30;16.50;;;;;;;9.38;100.00;98427.59;2087648;28;20364;-70
2022/01/03 00:53:47;;;;;;;18.35;16.75;;;;;;;9.40;100.00;98436.09;2088344;28;20230;-70
2022/01/03 00:54:48;;;;;;;19.27;17.65;;;;;;;9.44;100.00;98418.41;2087843;28;20230;-70
2022/01/03 00:56:02;;;;;;;18.53;16.87;;;;;;;9.43;100.00;98420.28;2079397;28;20251;-70
2022/01/03 00:57:07;;;;;;;18.17;16.60;;;;;;;9.38;100.00;98407.09;2087530;28;20665;-71
2022/01/03 00:58:10;;;;;;;18.92;17.13;;;;;;;9.39;100.00;98411.34;2087171;28;20579;-71
2022/01/03 00:59:15;;;;;;;17.25;15.90;;;;;;;9.43;100.00;98409.63;2087597;28;20233;-70
2022/01/03 01:00:16;;;;;;;18.67;16.77;;;;;;;9.38;100.00;98401.75;2087531;28;20276;-70
2022/01/03 01:01:19;;;;;;;17.63;16.05;;;;;;;9.33;100.00;98415.22;2079388;28;20251;-70
2022/01/03 01:02:20;;;;;;;18.27;16.67;;;;;;;9.29;100.00;98393.72;2087460;28;20219;-70
2022/01/03 01:03:29;;;;;;;18.40;16.67;;;;;;;9.29;100.00;98398.25;2079135;28;20734;-71
2022/01/03 01:04:30;;;;;;;18.55;16.98;;;;;;;9.28;100.00;98392.16;2079935;28;20663;-70
2022/01/03 01:05:34;;;;;;;18.23;16.73;;;;;;;9.23;100.00;98399.50;2079615;28;20223;-70
2022/01/03 01:06:37;;;;;;;18.08;16.58;;;;;;;9.25;100.00;98398.09;2079171;28;20222;-70
2022/01/03 01:07:40;;;;;;;17.63;16.23;;;;;;;9.21;100.00;98405.13;2079185;28;20234;-71
2022/01/03 01:08:43;;;;;;;18.30;16.80;;;;;;;9.23;100.00;98391.50;2079104;28;20303;-71
2022/01/03 01:09:51;;;;;;;18.45;16.95;;;;;;;9.20;100.00;98403.53;2079671;28;20281;-70
2022/01/03 01:10:53;;;;;;;19.02;17.40;;;;;;;9.29;100.00;98395.59;2079801;28;20223;-70
2022/01/03 01:11:57;;;;;;;18.77;17.00;;;;;;;9.25;100.00;98391.97;2087409;28;20321;-70
2022/01/03 01:13:03;;;;;;;19.80;18.15;;;;;;;9.18;100.00;98410.25;2087517;28;20235;-71
2022/01/03 01:14:05;;;;;;;19.30;17.65;;;;;;;9.19;100.00;98393.19;2087785;28;20309;-70
2022/01/03 01:15:06;;;;;;;19.33;17.70;;;;;;;9.17;100.00;98390.06;2095737;28;20218;-71
2022/01/03 01:16:09;;;;;;;19.38;17.88;;;;;;;9.20;100.00;98387.56;2086935;28;20587;-71
2022/01/03 01:17:17;;;;;;;19.35;17.75;;;;;;;9.21;100.00;98399.81;2080246;28;20840;-70
2022/01/03 01:18:23;;;;;;;18.70;17.25;;;;;;;9.18;100.00;98380.97;2079421;28;20227;-70
2022/01/03 01:19:26;;;;;;;18.95;17.15;;;;;;;9.18;100.00;98413.69;2086998;28;20226;-71
2022/01/03 01:20:32;;;;;;;18.42;16.65;;;;;;;9.17;100.00;98387.38;2087262;28;20269;-70
2022/01/03 01:21:33;;;;;;;18.40;16.85;;;;;;;9.14;100.00;98382.69;2079488;28;20269;-70
2022/01/03 01:22:36;;;;;;;18.52;16.92;;;;;;;9.14;100.00;98374.69;2087299;28;20226;-70
2022/01/03 01:23:40;;;;;;;19.35;17.63;;;;;;;9.14;100.00;98385.34;2087483;28;20218;-70
2022/01/03 01:24:48;;;;;;;19.25;17.50;;;;;;;9.08;100.00;98371.34;2079358;28;20289;-70
2022/01/03 01:28:33;;;;;;;18.17;16.75;;;;;;;9.10;100.00;98395.00;2081709;28;20231;-70
2022/01/03 01:29:36;;;;;;;19.30;17.50;;;;;;;9.07;100.00;98394.53;2079111;28;20227;-71
2022/01/03 01:30:38;;;;;;;18.70;17.20;;;;;;;9.12;100.00;98392.81;2079141;28;20724;-71
2022/01/03 01:31:46;;;;;;;18.90;17.30;;;;;;;9.14;100.00;98396.00;2079109;28;20231;-70
2022/01/03 01:32:48;;;;;;;17.95;16.58;;;;;;;9.11;100.00;98400.00;2079394;28;20298;-70
2022/01/03 01:33:54;;;;;;;18.90;17.08;;;;;;;9.10;100.00;98395.78;2086521;28;20695;-70
2022/01/03 01:34:58;;;;;;;17.90;16.40;;;;;;;9.10;100.00;98397.66;2087003;28;20236;-71
2022/01/03 01:36:02;;;;;;;18.25;16.73;;;;;;;9.15;100.00;98416.19;2087347;28;20249;-70
2022/01/03 01:37:08;;;;;;;18.40;17.00;;;;;;;9.14;100.00;98411.94;2079242;28;20262;-70
2022/01/03 01:38:18;;;;;;;19.13;17.52;;;;;;;9.13;100.00;98395.19;2079573;28;20670;-70
2022/01/03 01:39:21;;;;;;;18.85;17.35;;;;;;;9.12;100.00;98385.66;2087718;28;20222;-70
2022/01/03 01:40:22;;;;;;;18.90;17.20;;;;;;;9.11;100.00;98360.09;2086852;28;20218;-70
2022/01/03 01:41:29;;;;;;;18.50;16.93;;;;;;;9.12;100.00;98375.00;2087214;28;20254;-71
2022/01/03 01:42:31;;;;;;;19.15;17.50;;;;;;;9.12;100.00;98367.03;2087144;28;20297;-71
2022/01/03 01:43:36;;;;;;;17.60;16.27;;;;;;;9.12;100.00;98376.84;2087213;28;20269;-70
2022/01/03 01:44:38;;;;;;;17.92;16.35;;;;;;;9.10;100.00;98365.72;2079343;28;20306;-70
2022/01/03 01:45:43;;;;;;;18.27;16.67;;;;;;;9.11;100.00;98367.28;2079432;28;20689;-71
2022/01/03 01:46:46;;;;;;;18.17;16.30;;;;;;;9.04;100.00;98365.88;2087286;28;20222;-71
2022/01/03 01:47:55;;;;;;;19.10;17.50;;;;;;;9.06;100.00;98362.91;2087224;28;20285;-70
2022/01/03 01:48:56;;;;;;;18.52;17.00;;;;;;;9.03;100.00;98366.16;2079436;28;20588;-70
2022/01/03 01:50:04;;;;;;;18.80;17.30;;;;;;;9.00;100.00;98353.47;2079197;28;20258;-70
2022/01/03 01:51:06;;;;;;;18.60;17.23;;;;;;;8.98;100.00;98371.59;2087248;28;20697;-71
2022/01/03 01:52:12;;;;;;;18.38;16.65;;;;;;;9.04;100.00;98376.50;2078641;28;20279;-71
2022/01/03 01:53:21;;;;;;;18.42;16.83;;;;;;;9.05;100.00;98361.34;2079299;28;20257;-70
2022/01/03 01:54:29;;;;;;;18.48;16.90;;;;;;;9.05;100.00;98361.34;2079357;28;20631;-71
2022/01/03 01:55:31;;;;;;;17.25;16.00;;;;;;;9.01;100.00;98365.66;2079748;28;20691;-71
2022/01/03 01:56:39;;;;;;;17.95;16.45;;;;;;;9.00;100.00;98358.78;2087140;28;20277;-70
2022/01/03 01:57:54;;;;;;;18.10;16.63;;;;;;;8.98;100.00;98355.66;2086691;28;20276;-71
2022/01/03 01:59:11;;;;;;;18.50;16.73;;;;;;;8.97;100.00;98344.22;2080641;28;20595;-70
2022/01/03 02:00:15;;;;;;;18.27;16.58;;;;;;;8.94;100.00;98344.00;2088166;28;20226;-70
2022/01/03 02:01:37;;;;;;;18.67;17.08;;;;;;;8.91;100.00;98350.75;2086767;28;20227;-71
2022/01/03 02:02:48;;;;;;;17.90;16.20;;;;;;;8.89;100.00;98363.56;2088225;28;20305;-71
2022/01/03 02:03:59;;;;;;;16.98;15.48;;;;;;;8.92;100.00;98352.31;2087064;28;20685;-70
2022/01/03 02:05:10;;;;;;;17.85;16.25;;;;;;;8.90;100.00;98354.50;2080143;28;20294;-71
2022/01/03 02:06:27;;;;;;;21.88;15.77;;;;;;;8.96;100.00;98358.59;2086858;28;20234;-71
2022/01/03 02:07:49;;;;;;;17.95;16.42;;;;;;;8.95;100.00;98358.91;2086710;28;20740;-71
2022/01/03 02:09:07;;;;;;;18.60;17.08;;;;;;;8.94;100.00;98362.63;2081126;28;20223;-70
2022/01/03 02:10:15;;;;;;;17.48;16.00;;;;;;;8.97;100.00;98365.50;2081005;28;20301;-70
2022/01/03 02:11:28;;;;;;;18.13;16.83;;;;;;;9.01;100.00;98360.34;2079257;28;20285;-70
2022/01/03 02:12:35;;;;;;;17.20;15.90;;;;;;;9.01;100.00;98355.81;2079716;28;20571;-70
2022/01/03 02:13:37;;;;;;;18.10;16.60;;;;;;;8.99;100.00;98341.25;2079623;28;20293;-71
2022/01/03 02:14:39;;;;;;;18.45;16.83;;;;;;;9.00;100.00;98342.81;2078488;28;20220;-70
2022/01/03 02:15:50;;;;;;;19.17;17.45;;;;;;;9.03;100.00;98352.84;2086901;28;20657;-70
2022/01/03 02:16:53;;;;;;;20.23;18.38;;;;;;;9.02;100.00;98351.28;2086975;28;20231;-71
2022/01/03 02:17:56;;;;;;;18.55;17.25;;;;;;;9.12;100.00;98358.22;2086925;28;20231;-70
2022/01/03 02:18:57;;;;;;;19.05;17.52;;;;;;;9.13;100.00;98363.25;2087040;28;20227;-71
2022/01/03 02:20:05;;;;;;;19.37;17.60;;;;;;;9.12;100.00;98364.34;2086901;28;20245;-70
2022/01/03 02:21:07;;;;;;;18.60;17.17;;;;;;;9.11;100.00;98369.97;2086716;28;20227;-72
2022/01/03 02:22:10;;;;;;;19.00;17.40;;;;;;;9.09;100.00;98367.59;2086954;28;20231;-70
2022/01/03 02:23:20;;;;;;;18.98;17.35;;;;;;;9.09;100.00;98359.63;2086777;28;20300;-71
2022/01/03 02:24:21;;;;;;;19.30;17.55;;;;;;;9.13;100.00;98362.47;2086878;28;20253;-71
2022/01/03 02:25:24;;;;;;;18.83;17.25;;;;;;;9.13;100.00;98354.50;2078326;28;20227;-70
2022/01/03 02:26:27;;;;;;;17.40;16.15;;;;;;;9.12;100.00;98360.88;2086797;28;20323;-71
2022/01/03 02:27:30;;;;;;;18.23;16.92;;;;;;;9.14;100.00;98374.69;2087093;28;20227;-70
2022/01/03 02:28:30;;;;;;;18.48;16.98;;;;;;;9.14;100.00;98354.19;2086808;28;20218;-69
2022/01/03 02:29:33;;;;;;;18.20;16.90;;;;;;;9.14;100.00;98350.75;2086860;28;20590;-70
2022/01/03 02:30:35;;;;;;;19.13;17.55;;;;;;;9.20;100.00;98352.16;2086845;28;20782;-70
2022/01/03 02:31:39;;;;;;;18.77;17.23;;;;;;;9.18;100.00;98346.38;2086264;28;20283;-71
2022/01/03 02:32:41;;;;;;;18.13;16.52;;;;;;;9.15;100.00;98344.34;2078923;28;20243;-70
2022/01/03 02:33:43;;;;;;;18.75;17.08;;;;;;;9.16;100.00;98346.69;2086624;28;20292;-69
2022/01/03 02:34:44;;;;;;;18.08;16.48;;;;;;;9.18;100.00;98338.38;2086899;28;20219;-70
2022/01/03 02:35:47;;;;;;;17.77;16.13;;;;;;;9.14;100.00;98340.09;2086846;28;20688;-71
2022/01/03 02:36:51;;;;;;;18.35;16.83;;;;;;;9.15;100.00;98333.69;2078947;28;20219;-70
2022/01/03 02:38:04;;;;;;;17.98;16.58;;;;;;;9.19;100.00;98329.31;2079553;28;20235;-70
2022/01/03 02:39:04;;;;;;;18.10;16.55;;;;;;;9.20;100.00;98325.56;2078877;28;20281;-70
2022/01/03 02:40:08;;;;;;;18.10;16.67;;;;;;;9.17;100.00;98326.97;2078651;28;20231;-71
2022/01/03 02:41:09;;;;;;;18.23;16.80;;;;;;;9.16;100.00;98329.94;2078265;28;20681;-70
2022/01/03 02:42:10;;;;;;;18.40;17.00;;;;;;;9.18;100.00;98327.75;2086852;28;20234;-70
2022/01/03 02:43:12;;;;;;;18.00;16.50;;;;;;;9.16;100.00;98308.63;2086586;28;20243;-70
2022/01/03 02:44:14;;;;;;;18.25;16.85;;;;;;;9.16;100.00;98320.06;2086720;28;20223;-70
2022/01/03 02:45:19;;;;;;;18.45;16.73;;;;;;;9.12;100.00;98318.31;2086074;28;20228;-70
2022/01/03 02:46:20;;;;;;;17.88;16.17;;;;;;;9.09;100.00;98308.28;2078875;28;20717;-70
2022/01/03 02:47:22;;;;;;;17.95;16.67;;;;;;;9.09;100.00;98308.28;2078645;28;20598;-70
2022/01/03 02:48:25;;;;;;;18.83;17.23;;;;;;;9.09;100.00;98302.97;2078196;28;20240;-71
2022/01/03 02:49:28;;;;;;;17.77;16.33;;;;;;;9.11;100.00;98306.09;2079115;28;20231;-71
2022/01/03 02:50:31;;;;;;;18.23;16.83;;;;;;;9.07;100.00;98312.03;2086717;28;20265;-70
2022/01/03 02:51:35;;;;;;;17.92;16.42;;;;;;;9.05;100.00;98308.13;2086683;28;20219;-70
2022/01/03 02:52:36;;;;;;;17.63;16.23;;;;;;;9.03;100.00;98303.09;2086652;28;20222;-70
2022/01/03 02:53:38;;;;;;;18.63;17.23;;;;;;;9.03;100.00;98303.09;2077975;28;20684;-72
2022/01/03 02:54:39;;;;;;;18.20;16.70;;;;;;;9.00;100.00;98302.91;2078416;28;20238;-71
2022/01/03 02:55:40;;;;;;;17.87;16.37;;;;;;;8.98;100.00;98295.22;2078223;28;20307;-70
2022/01/03 02:56:42;;;;;;;18.15;16.67;;;;;;;8.96;100.00;98300.06;2086536;28;20305;-71
2022/01/03 02:57:45;;;;;;;17.55;16.25;;;;;;;8.94;100.00;98291.59;2078393;28;20302;-71
2022/01/03 02:58:46;;;;;;;18.00;16.60;;;;;;;8.94;100.00;98296.91;2078782;28;20314;-70
2022/01/03 02:59:52;;;;;;;18.47;16.87;;;;;;;8.96;100.00;98296.63;2078670;28;20223;-71
2022/01/03 03:00:54;;;;;;;17.63;16.33;;;;;;;8.97;100.00;98304.31;2086470;28;20661;-71
2022/01/03 03:02:02;;;;;;;18.73;17.38;;;;;;;8.92;100.00;98293.00;2086575;28;20218;-71
2022/01/03 03:03:05;;;;;;;18.63;17.10;;;;;;;8.97;100.00;98299.00;2078408;28;20792;-70
2022/01/03 03:04:05;;;;;;;18.40;17.08;;;;;;;8.94;100.00;98291.59;2086577;28;20254;-70
2022/01/03 03:05:10;;;;;;;18.83;17.43;;;;;;;8.93;100.00;98300.66;2078477;28;20269;-71
2022/01/03 03:06:10;;;;;;;18.77;17.08;;;;;;;8.88;100.00;98302.69;2078369;28;20227;-70
2022/01/03 03:07:19;;;;;;;18.83;17.37;;;;;;;8.88;100.00;98303.47;2086627;28;20285;-71
2022/01/03 03:08:21;;;;;;;17.95;16.73;;;;;;;8.87;100.00;98307.22;2086401;28;20705;-70
2022/01/03 03:09:22;;;;;;;18.75;17.13;;;;;;;8.84;100.00;98297.16;2077958;28;20322;-71
2022/01/03 03:10:26;;;;;;;17.67;16.38;;;;;;;8.78;100.00;98304.50;2086127;28;20234;-71
2022/01/03 03:11:31;;;;;;;18.52;16.88;;;;;;;8.82;100.00;98306.53;2079163;28;20257;-70
2022/01/03 03:12:33;;;;;;;19.00;17.60;;;;;;;8.79;100.00;98302.63;2086408;28;20223;-70
2022/01/03 03:13:34;;;;;;;18.70;17.20;;;;;;;8.82;100.00;98303.88;2086638;28;20218;-71
2022/01/03 03:14:38;;;;;;;17.63;16.13;;;;;;;8.79;100.00;98310.59;2086246;28;20222;-71
2022/01/03 03:15:40;;;;;;;17.25;15.85;;;;;;;8.78;100.00;98315.13;2078295;28;20332;-70
2022/01/03 03:16:42;;;;;;;17.02;15.82;;;;;;;8.81;100.00;98308.41;2086568;28;20677;-70
2022/01/03 03:17:44;;;;;;;17.00;15.80;;;;;;;8.78;100.00;98306.38;2086434;28;20230;-71
2022/01/03 03:18:54;;;;;;;16.90;15.70;;;;;;;8.78;100.00;98306.38;2086658;28;20222;-71
2022/01/03 03:19:59;;;;;;;16.83;15.35;;;;;;;8.77;100.00;98304.78;2086160;28;20234;-70
2022/01/03 03:21:03;;;;;;;16.83;15.40;;;;;;;8.76;100.00;98300.56;2086530;28;20674;-71
2022/01/03 03:22:04;;;;;;;16.93;15.60;;;;;;;8.75;100.00;98299.75;2086447;28;20605;-71
2022/01/03 03:23:07;;;;;;;16.67;15.23;;;;;;;8.78;100.00;98295.75;2086290;28;20720;-71
2022/01/03 03:24:09;;;;;;;17.23;15.88;;;;;;;8.76;100.00;98304.00;2078004;28;20243;-70
2022/01/03 03:25:14;;;;;;;16.17;15.00;;;;;;;8.71;100.00;98293.50;2078376;28;20229;-71
2022/01/03 03:26:19;;;;;;;17.38;15.93;;;;;;;8.75;100.00;98296.31;2086468;28;20240;-70
2022/01/03 03:27:21;;;;;;;16.80;15.57;;;;;;;8.73;100.00;98290.53;2078836;28;20681;-70
2022/01/03 03:28:25;;;;;;;16.98;15.68;;;;;;;8.74;100.00;98292.88;2077532;28;20293;-71
2022/01/03 03:29:26;;;;;;;17.48;16.17;;;;;;;8.72;100.00;98289.75;2078605;28;22479;-71
2022/01/03 03:30:30;;;;;;;18.20;16.70;;;;;;;8.74;100.00;98281.47;2077967;28;20236;-71
2022/01/03 03:31:31;;;;;;;18.63;17.15;;;;;;;8.74;100.00;98284.13;2086503;28;20260;-70
2022/01/03 03:32:35;;;;;;;18.57;17.20;;;;;;;8.75;100.00;98283.81;2078221;28;20735;-71
2022/01/03 03:33:38;;;;;;;18.52;17.02;;;;;;;8.77;100.00;98288.81;2086386;28;20249;-71
2022/01/03 03:34:40;;;;;;;17.52;16.23;;;;;;;8.77;100.00;98289.63;2086311;28;20231;-71
2022/01/03 03:35:42;;;;;;;16.90;15.70;;;;;;;8.80;100.00;98282.91;2086350;28;20261;-70
2022/01/03 03:36:44;;;;;;;17.60;15.98;;;;;;;8.82;100.00;98287.94;2086584;28;20943;-70
2022/01/03 03:37:46;;;;;;;16.93;15.50;;;;;;;8.78;100.00;98287.75;2086312;28;20599;-71
2022/01/03 03:38:48;;;;;;;18.00;16.70;;;;;;;8.77;100.00;98286.16;2086542;28;20673;-70
2022/01/03 03:39:53;;;;;;;17.63;16.27;;;;;;;8.77;100.00;98281.66;2086060;28;20696;-72
2022/01/03 03:40:58;;;;;;;17.15;15.85;;;;;;;8.77;100.00;98276.34;2086375;28;20235;-71
2022/01/03 03:42:02;;;;;;;18.65;17.27;;;;;;;8.75;100.00;98283.03;2086358;28;20230;-70
2022/01/03 03:43:04;;;;;;;17.95;16.65;;;;;;;8.72;100.00;98289.75;2086584;28;20649;-71
2022/01/03 03:44:05;;;;;;;17.65;16.30;;;;;;;8.71;100.00;98287.38;2086292;28;20222;-71
2022/01/03 03:45:07;;;;;;;16.93;15.63;;;;;;;8.70;100.00;98285.81;2078100;28;20230;-70
2022/01/03 03:46:08;;;;;;;16.77;15.55;;;;;;;8.69;100.00;98286.91;2077821;28;20548;-70
2022/01/03 03:47:10;;;;;;;17.00;15.80;;;;;;;8.66;100.00;98287.50;2077893;28;20292;-71
2022/01/03 03:48:13;;;;;;;17.20;15.90;;;;;;;8.64;100.00;98284.38;2086413;28;20230;-70
2022/01/03 03:49:14;;;;;;;17.10;15.90;;;;;;;8.65;100.00;98281.41;2086248;28;20223;-71
2022/01/03 03:50:16;;;;;;;17.03;15.60;;;;;;;8.66;100.00;98282.19;2086422;28;20284;-71
2022/01/03 03:51:16;;;;;;;17.42;15.93;;;;;;;8.64;100.00;98284.38;2087045;28;20219;-70
2022/01/03 03:52:20;;;;;;;17.15;15.85;;;;;;;8.65;100.00;98283.28;2086389;28;20223;-70
2022/01/03 03:53:22;;;;;;;17.50;16.00;;;;;;;8.63;100.00;98275.59;2086331;28;20218;-71
2022/01/03 03:54:28;;;;;;;17.95;16.48;;;;;;;8.70;100.00;98285.81;2085766;28;20668;-71
2022/01/03 03:55:31;;;;;;;17.17;15.73;;;;;;;8.66;100.00;98290.16;2078512;28;20638;-70
2022/01/03 03:56:34;;;;;;;17.90;16.60;;;;;;;8.69;100.00;98289.56;2086277;28;20323;-70
2022/01/03 03:57:36;;;;;;;18.20;16.60;;;;;;;8.67;100.00;98286.41;2079898;28;20318;-70
2022/01/03 03:58:37;;;;;;;17.40;16.20;;;;;;;8.71;100.00;98292.72;2087672;28;20407;-71
2022/01/03 03:59:39;;;;;;;17.70;16.33;;;;;;;8.68;100.00;98288.75;2088092;28;20230;-71
2022/01/03 04:00:42;;;;;;;18.23;16.83;;;;;;;8.66;100.00;98280.31;2088013;28;20291;-71
2022/01/03 04:01:46;;;;;;;19.23;17.63;;;;;;;8.68;100.00;98277.34;2080085;28;20211;-71
2022/01/03 04:02:48;;;;;;;20.38;18.55;;;;;;;8.66;100.00;98274.19;2087941;28;20301;-70
2022/01/03 04:03:52;;;;;;;19.27;17.83;;;;;;;8.74;100.00;98271.59;2087922;28;20256;-70
2022/01/03 04:04:53;;;;;;;17.52;16.25;;;;;;;8.69;100.00;98260.31;2079310;28;20580;-70
2022/01/03 04:05:54;;;;;;;18.13;16.73;;;;;;;8.70;100.00;98269.88;2079691;28;20278;-70
2022/01/03 04:06:55;;;;;;;16.85;15.52;;;;;;;8.71;100.00;98266.91;2079782;28;20238;-71
2022/01/03 04:07:59;;;;;;;18.00;16.70;;;;;;;8.69;100.00;98279.72;2079523;28;20295;-70
2022/01/03 04:09:01;;;;;;;18.63;17.20;;;;;;;8.67;100.00;98267.78;2079947;28;20614;-70
2022/01/03 04:10:06;;;;;;;18.13;16.83;;;;;;;8.69;100.00;98279.72;2080105;28;20232;-70
2022/01/03 04:11:07;;;;;;;18.27;16.98;;;;;;;8.68;100.00;98272.03;2087565;28;20597;-70
2022/01/03 04:12:09;;;;;;;19.33;18.02;;;;;;;8.67;100.00;98283.75;2087944;28;20310;-71
2022/01/03 04:13:10;;;;;;;18.50;17.13;;;;;;;8.66;100.00;98272.34;2079486;28;20580;-70
2022/01/03 04:14:12;;;;;;;17.63;16.30;;;;;;;8.66;100.00;98274.19;2088016;28;20248;-70
2022/01/03 04:15:13;;;;;;;17.98;16.67;;;;;;;8.66;100.00;98268.88;2088096;28;20222;-70
2022/01/03 04:16:16;;;;;;;17.92;16.73;;;;;;;8.73;100.00;98275.34;2088021;28;20239;-70
2022/01/03 04:17:17;;;;;;;18.50;17.10;;;;;;;8.75;100.00;98272.38;2087941;28;20215;-70
2022/01/03 04:18:19;;;;;;;18.13;16.83;;;;;;;8.72;100.00;98273.00;2087810;28;20226;-70
2022/01/03 04:19:20;;;;;;;17.85;16.60;;;;;;;8.75;100.00;98275.03;2087837;28;20222;-71
2022/01/03 04:20:22;;;;;;;18.73;17.23;;;;;;;8.72;100.00;98273.78;2087954;28;20219;-70
2022/01/03 04:21:25;;;;;;;18.23;17.02;;;;;;;8.73;100.00;98286.00;2079353;28;20223;-71
2022/01/03 04:22:27;;;;;;;18.15;16.60;;;;;;;8.76;100.00;98281.94;2079971;28;20225;-71
2022/01/03 04:23:28;;;;;;;17.40;16.20;;;;;;;8.77;100.00;98279.00;2087846;28;20222;-70
2022/01/03 04:24:30;;;;;;;17.25;16.05;;;;;;;8.78;100.00;98272.59;2087749;28;20226;-71
2022/01/03 04:25:32;;;;;;;17.27;16.08;;;;;;;8.78;100.00;98271.81;2079647;28;20697;-70
2022/01/03 04:26:34;;;;;;;17.05;15.75;;;;;;;8.78;100.00;98274.47;2079677;28;20689;-70
2022/01/03 04:27:35;;;;;;;17.15;15.65;;;;;;;8.78;100.00;98271.81;2087822;28;20223;-70
2022/01/03 04:28:37;;;;;;;16.90;15.60;;;;;;;8.76;100.00;98274.75;2087853;28;20246;-71
2022/01/03 04:29:40;;;;;;;16.58;15.48;;;;;;;8.78;100.00;98272.59;2087379;28;20446;-71
2022/01/03 04:30:41;;;;;;;17.48;15.95;;;;;;;8.84;100.00;98273.22;2087802;28;20226;-70
2022/01/03 04:31:44;;;;;;;16.52;15.20;;;;;;;8.81;100.00;98270.41;2079408;28;20281;-70
2022/01/03 04:32:45;;;;;;;17.25;15.80;;;;;;;8.81;100.00;98263.22;2087819;28;20737;-71
2022/01/03 04:33:46;;;;;;;16.40;15.20;;;;;;;8.81;100.00;98263.22;2087883;28;20223;-71
2022/01/03 04:34:48;;;;;;;17.33;16.03;;;;;;;8.82;100.00;98267.44;2088038;28;20301;-71
2022/01/03 04:35:51;;;;;;;17.38;15.90;;;;;;;8.82;100.00;98271.97;2079569;28;20222;-70
2022/01/03 04:36:54;;;;;;;17.15;15.70;;;;;;;8.84;100.00;98262.59;2087388;28;20230;-70
2022/01/03 04:37:55;;;;;;;16.63;15.32;;;;;;;8.87;100.00;98269.19;2087677;28;20229;-71
2022/01/03 04:38:57;;;;;;;17.10;15.80;;;;;;;8.87;100.00;98277.19;2079549;28;20227;-70
2022/01/03 04:39:58;;;;;;;16.98;15.68;;;;;;;8.88;100.00;98268.09;2087600;28;20226;-70
2022/01/03 04:41:01;;;;;;;16.97;15.63;;;;;;;8.89;100.00;98265.13;2079410;28;20310;-70
2022/01/03 04:42:05;;;;;;;17.00;15.50;;;;;;;8.90;100.00;98268.59;2079756;28;20219;-70
2022/01/03 04:43:05;;;;;;;17.80;16.30;;;;;;;8.87;100.00;98264.66;2087774;28;20219;-69
2022/01/03 04:44:07;;;;;;;17.63;16.07;;;;;;;8.91;100.00;98260.28;2079649;28;20223;-70
2022/01/03 04:45:09;;;;;;;18.30;16.70;;;;;;;8.91;100.00;98257.63;2079313;28;20235;-70
2022/01/03 04:46:10;;;;;;;16.50;15.38;;;;;;;8.92;100.00;98256.53;2087700;28;20673;-69
2022/01/03 04:47:11;;;;;;;16.00;14.75;;;;;;;8.94;100.00;98258.88;2087584;28;20761;-69
2022/01/03 04:48:13;;;;;;;16.52;15.32;;;;;;;8.92;100.00;98256.53;2079527;28;20234;-70
2022/01/03 04:49:14;;;;;;;16.42;15.13;;;;;;;9.00;100.00;98247.81;2087654;28;20289;-69
2022/01/03 04:50:16;;;;;;;17.03;15.63;;;;;;;8.98;100.00;98259.88;2087571;28;20284;-69
2022/01/03 04:51:17;;;;;;;16.92;15.63;;;;;;;8.97;100.00;98259.09;2079606;28;20224;-69
2022/01/03 04:52:19;;;;;;;16.50;15.23;;;;;;;8.96;100.00;98260.19;2087563;28;20230;-71
2022/01/03 04:53:25;;;;;;;17.95;16.30;;;;;;;8.95;100.00;98261.25;2087237;28;20222;-70
2022/01/03 04:54:27;;;;;;;17.45;16.00;;;;;;;8.97;100.00;98259.09;2079869;28;20227;-70